Time,TemperatureF,DewpointF,PressureIn,WindDirection,WindDirectionDegrees,WindSpeedMPH,WindSpeedGustMPH,Humidity,HourlyPrecipIn,Conditions,Clouds,dailyrainin,SoftwareType,DateUTC
2013-10-16 00:01:00,42.7,42.5,0.00,WSW,253,3.6,-999.0,99,0.00,,,-99.99,,2013-10-16 08:01:00,
2013-10-16 00:06:00,42.5,42.4,0.00,South,181,3.2,-999.0,99,0.00,,,-99.99,,2013-10-16 08:06:00,
2013-10-16 00:11:00,42.7,42.6,0.00,SSW,193,2.7,-999.0,99,0.00,,,-99.99,,2013-10-16 08:11:00,
2013-10-16 00:17:00,42.5,42.5,0.00,East,97,2.8,-999.0,99,0.00,,,-99.99,,2013-10-16 08:17:00,
2013-10-16 00:22:00,42.7,42.6,0.00,NE,49,8.8,-999.0,99,0.00,,,-99.99,,2013-10-16 08:22:00,
2013-10-16 00:29:00,42.7,42.6,0.00,East,98,6.1,-999.0,99,0.00,,,-99.99,,2013-10-16 08:29:00,
2013-10-16 00:34:00,42.6,42.5,0.00,SE,140,2.8,-999.0,99,0.00,,,-99.99,,2013-10-16 08:34:00,
2013-10-16 00:40:00,42.5,42.5,0.00,ESE,105,4.5,-999.0,99,0.00,,,-99.99,,2013-10-16 08:40:00,
2013-10-16 00:45:00,42.4,42.3,0.00,East,89,5.5,-999.0,99,0.00,,,-99.99,,2013-10-16 08:45:00,
2013-10-16 00:51:00,42.6,42.5,0.00,South,175,4.9,-999.0,99,0.00,,,-99.99,,2013-10-16 08:51:00,
2013-10-16 00:56:00,42.2,42.2,0.00,WSW,253,4.4,-999.0,99,0.00,,,-99.99,,2013-10-16 08:56:00,
2013-10-16 01:01:00,42.3,42.2,0.00,ESE,115,2.8,-999.0,99,0.00,,,-99.99,,2013-10-16 09:01:00,
2013-10-16 01:06:00,42.3,42.2,0.00,ESE,122,2.5,-999.0,99,0.00,,,-99.99,,2013-10-16 09:06:00,
2013-10-16 01:12:00,42.3,42.2,0.00,North,3,2.4,-999.0,99,0.00,,,-99.99,,2013-10-16 09:12:00,
2013-10-16 01:19:00,42.3,42.2,0.00,SSW,202,5.3,-999.0,99,0.00,,,-99.99,,2013-10-16 09:19:00,
2013-10-16 01:24:00,42.2,42.1,0.00,WSW,253,1.6,-999.0,99,0.00,,,-99.99,,2013-10-16 09:24:00,
2013-10-16 01:29:00,42.1,42.0,0.00,WNW,300,3.2,-999.0,99,0.00,,,-99.99,,2013-10-16 09:29:00,
2013-10-16 01:34:00,42.1,42.0,0.00,North,7,1.8,-999.0,99,0.00,,,-99.99,,2013-10-16 09:34:00,
2013-10-16 01:39:00,42.0,41.9,0.00,SE,140,7.2,-999.0,99,0.00,,,-99.99,,2013-10-16 09:39:00,
2013-10-16 01:44:00,42.0,41.9,0.00,SW,222,2.9,-999.0,99,0.00,,,-99.99,,2013-10-16 09:44:00,
2013-10-16 01:50:00,42.0,41.9,0.00,SSW,194,3.2,-999.0,99,0.00,,,-99.99,,2013-10-16 09:50:00,
2013-10-16 01:55:00,41.8,41.8,0.00,South,174,1.7,-999.0,99,0.00,,,-99.99,,2013-10-16 09:55:00,
2013-10-16 02:01:00,41.8,41.7,0.00,SSE,158,7.7,-999.0,99,0.00,,,-99.99,,2013-10-16 10:01:00,
2013-10-16 02:06:00,41.7,41.6,0.00,SW,233,1.6,-999.0,99,0.00,,,-99.99,,2013-10-16 10:06:00,
2013-10-16 02:11:00,41.6,41.5,0.00,SW,214,7.8,-999.0,99,0.00,,,-99.99,,2013-10-16 10:11:00,
2013-10-16 02:17:00,41.7,41.6,0.00,NW,326,9.9,-999.0,99,0.00,,,-99.99,,2013-10-16 10:17:00,
2013-10-16 02:22:00,41.7,41.6,0.00,SSW,193,15.8,-999.0,99,0.01,,,-99.99,,2013-10-16 10:22:00,
2013-10-16 02:28:00,41.7,41.6,0.00,NW,310,3.6,-999.0,99,0.00,,,-99.99,,2013-10-16 10:28:00,
2013-10-16 02:33:00,41.3,41.2,0.00,South,177,5.9,-999.0,99,0.00,,,-99.99,,2013-10-16 10:33:00,
2013-10-16 02:38:00,41.1,41.0,0.00,WSW,243,14.3,-999.0,99,0.00,,,-99.99,,2013-10-16 10:38:00,
2013-10-16 02:43:00,41.2,41.2,0.00,WSW,255,25.9,-999.0,99,0.00,,,-99.99,,2013-10-16 10:43:00,
2013-10-16 02:49:00,41.1,41.0,0.00,WNW,287,25.2,-999.0,99,0.00,,,-99.99,,2013-10-16 10:49:00,
2013-10-16 02:55:00,41.0,41.0,0.00,NW,304,12.6,-999.0,99,0.00,,,-99.99,,2013-10-16 10:55:00,
2013-10-16 03:01:00,41.0,40.9,0.00,WSW,256,4.6,-999.0,99,0.00,,,-99.99,,2013-10-16 11:01:00,
2013-10-16 03:06:00,41.1,41.0,0.00,WSW,239,3.0,-999.0,99,0.00,,,-99.99,,2013-10-16 11:06:00,
2013-10-16 03:11:00,40.9,40.8,0.00,ESE,107,2.6,-999.0,99,0.00,,,-99.99,,2013-10-16 11:11:00,
2013-10-16 03:17:00,40.8,40.7,0.00,South,181,5.0,-999.0,99,0.00,,,-99.99,,2013-10-16 11:17:00,
2013-10-16 03:23:00,40.6,40.5,0.00,NNE,29,2.2,-999.0,99,0.00,,,-99.99,,2013-10-16 11:23:00,
2013-10-16 03:28:00,40.6,40.5,0.00,East,87,1.6,-999.0,99,0.00,,,-99.99,,2013-10-16 11:28:00,
2013-10-16 03:34:00,40.3,40.2,0.00,ESE,107,4.6,-999.0,99,0.00,,,-99.99,,2013-10-16 11:34:00,
2013-10-16 03:39:00,40.1,40.0,0.00,WNW,297,16.4,-999.0,99,0.00,,,-99.99,,2013-10-16 11:39:00,
2013-10-16 03:44:00,40.1,40.0,0.00,NW,304,9.7,-999.0,99,0.00,,,-99.99,,2013-10-16 11:44:00,
2013-10-16 03:49:00,40.1,40.0,0.00,NE,35,2.5,-999.0,99,0.00,,,-99.99,,2013-10-16 11:49:00,
2013-10-16 03:54:00,40.0,39.9,0.00,West,280,2.5,-999.0,99,0.00,,,-99.99,,2013-10-16 11:54:00,
2013-10-16 04:00:00,39.9,39.8,0.00,NNW,343,1.7,-999.0,99,0.00,,,-99.99,,2013-10-16 12:00:00,
2013-10-16 04:05:00,39.7,39.6,0.00,West,274,9.1,-999.0,99,0.00,,,-99.99,,2013-10-16 12:05:00,
2013-10-16 04:11:00,39.4,39.3,0.00,West,279,28.8,-999.0,99,0.00,,,-99.99,,2013-10-16 12:11:00,
2013-10-16 04:16:00,39.3,39.2,0.00,NW,316,0.0,-999.0,99,0.00,,,-99.99,,2013-10-16 12:16:00,
2013-10-16 04:23:00,39.0,39.0,0.00,West,266,22.4,-999.0,99,0.00,,,-99.99,,2013-10-16 12:23:00,
2013-10-16 04:28:00,38.8,38.7,0.00,NW,305,31.6,-999.0,99,0.00,,,-99.99,,2013-10-16 12:28:00,
2013-10-16 04:36:00,38.9,38.8,0.00,NW,310,29.6,-999.0,99,0.00,,,-99.99,,2013-10-16 12:36:00,
2013-10-16 04:41:00,38.7,38.6,0.00,West,262,9.5,-999.0,99,0.00,,,-99.99,,2013-10-16 12:41:00,
2013-10-16 04:46:00,38.9,38.8,0.00,WNW,288,7.1,-999.0,99,0.00,,,-99.99,,2013-10-16 12:46:00,
2013-10-16 04:51:00,39.0,39.0,0.00,ESE,105,2.6,-999.0,99,0.00,,,-99.99,,2013-10-16 12:51:00,
2013-10-16 04:56:00,39.0,38.9,0.00,South,183,2.2,-999.0,99,0.00,,,-99.99,,2013-10-16 12:56:00,
2013-10-16 05:02:00,38.9,38.8,0.00,SSE,162,2.6,-999.0,99,0.00,,,-99.99,,2013-10-16 13:02:00,
2013-10-16 05:07:00,39.0,38.9,0.00,ENE,73,1.0,-999.0,99,0.00,,,-99.99,,2013-10-16 13:07:00,
2013-10-16 05:13:00,39.2,39.1,0.00,SE,136,1.7,-999.0,99,0.00,,,-99.99,,2013-10-16 13:13:00,
2013-10-16 05:18:00,39.2,39.1,0.00,WSW,238,0.7,-999.0,99,0.00,,,-99.99,,2013-10-16 13:18:00,
2013-10-16 05:24:00,39.2,39.1,0.00,WSW,253,1.5,-999.0,99,0.00,,,-99.99,,2013-10-16 13:24:00,
2013-10-16 05:29:00,39.3,39.1,0.00,WNW,300,1.9,-999.0,99,0.00,,,-99.99,,2013-10-16 13:29:00,
2013-10-16 05:34:00,39.4,39.2,0.00,NW,315,3.0,-999.0,99,0.00,,,-99.99,,2013-10-16 13:34:00,
2013-10-16 05:39:00,39.4,39.2,0.00,NW,326,2.0,-999.0,99,0.00,,,-99.99,,2013-10-16 13:39:00,
2013-10-16 05:45:00,39.6,39.4,0.00,SSW,205,3.4,-999.0,99,0.00,,,-99.99,,2013-10-16 13:45:00,
2013-10-16 05:50:00,39.7,39.5,0.00,NW,304,0.5,-999.0,99,0.00,,,-99.99,,2013-10-16 13:50:00,
2013-10-16 05:56:00,39.5,39.4,0.00,ENE,78,2.3,-999.0,99,0.00,,,-99.99,,2013-10-16 13:56:00,
2013-10-16 06:02:00,39.5,39.4,0.00,NNW,330,1.2,-999.0,99,0.00,,,-99.99,,2013-10-16 14:02:00,
2013-10-16 06:08:00,39.4,39.2,0.00,NNW,337,2.6,-999.0,99,0.00,,,-99.99,,2013-10-16 14:08:00,
2013-10-16 06:13:00,39.4,39.2,0.00,ESE,112,0.9,-999.0,99,0.00,,,-99.99,,2013-10-16 14:13:00,
2013-10-16 06:18:00,39.8,39.6,0.00,WSW,251,4.7,-999.0,99,0.00,,,-99.99,,2013-10-16 14:18:00,
2013-10-16 06:24:00,39.8,39.6,0.00,NNE,19,1.9,-999.0,99,0.00,,,-99.99,,2013-10-16 14:24:00,
2013-10-16 06:31:00,40.1,39.9,0.00,NNW,333,3.1,-999.0,99,0.00,,,-99.99,,2013-10-16 14:31:00,
2013-10-16 06:37:00,40.3,40.1,0.00,SSE,160,4.3,-999.0,99,0.00,,,-99.99,,2013-10-16 14:37:00,
2013-10-16 06:43:00,40.5,40.3,0.00,East,93,1.1,-999.0,99,0.00,,,-99.99,,2013-10-16 14:43:00,
2013-10-16 06:48:00,40.9,40.8,0.00,North,352,0.3,-999.0,99,0.00,,,-99.99,,2013-10-16 14:48:00,
2013-10-16 06:53:00,40.8,40.7,0.00,ENE,71,2.0,-999.0,99,0.00,,,-99.99,,2013-10-16 14:53:00,
2013-10-16 06:59:00,41.1,41.0,0.00,NW,326,3.5,-999.0,99,0.00,,,-99.99,,2013-10-16 14:59:00,
2013-10-16 07:04:00,41.5,41.5,0.00,WSW,246,3.6,-999.0,99,0.00,,,-99.99,,2013-10-16 15:04:00,
2013-10-16 07:10:00,41.6,41.5,0.00,NNW,348,1.5,-999.0,99,0.00,,,-99.99,,2013-10-16 15:10:00,
2013-10-16 07:17:00,41.7,41.6,0.00,ENE,72,3.9,-999.0,99,0.00,,,-99.99,,2013-10-16 15:17:00,
2013-10-16 07:22:00,41.7,41.6,0.00,NE,53,5.1,-999.0,99,0.00,,,-99.99,,2013-10-16 15:22:00,
2013-10-16 07:28:00,41.7,41.6,0.00,WSW,242,4.9,-999.0,99,0.00,,,-99.99,,2013-10-16 15:28:00,
2013-10-16 07:34:00,41.9,41.8,0.00,SE,132,3.1,-999.0,99,0.00,,,-99.99,,2013-10-16 15:34:00,
2013-10-16 07:39:00,41.9,41.8,0.00,ENE,61,5.4,-999.0,99,0.00,,,-99.99,,2013-10-16 15:39:00,
2013-10-16 07:45:00,42.1,42.0,0.00,SSW,193,3.8,-999.0,99,0.00,,,-99.99,,2013-10-16 15:45:00,
2013-10-16 07:50:00,42.0,41.9,0.00,NNE,16,6.7,-999.0,99,0.00,,,-99.99,,2013-10-16 15:50:00,
2013-10-16 07:55:00,42.1,42.0,0.00,NW,306,6.7,-999.0,99,0.00,,,-99.99,,2013-10-16 15:55:00,
2013-10-16 08:01:00,41.9,41.8,0.00,NNW,331,3.8,-999.0,99,0.00,,,-99.99,,2013-10-16 16:01:00,
2013-10-16 08:06:00,41.7,41.6,0.00,ESE,106,4.0,-999.0,99,0.00,,,-99.99,,2013-10-16 16:06:00,
2013-10-16 08:11:00,42.0,41.9,0.00,NE,54,7.8,-999.0,99,0.00,,,-99.99,,2013-10-16 16:11:00,
2013-10-16 08:17:00,42.0,42.0,0.00,NNE,18,2.7,-999.0,99,0.00,,,-99.99,,2013-10-16 16:17:00,
2013-10-16 08:22:00,42.0,41.9,0.00,ENE,60,4.2,-999.0,99,0.00,,,-99.99,,2013-10-16 16:22:00,
2013-10-16 08:27:00,42.0,41.9,0.00,SE,145,2.3,-999.0,99,0.00,,,-99.99,,2013-10-16 16:27:00,
2013-10-16 08:32:00,42.3,42.2,0.00,NE,41,2.7,-999.0,99,0.00,,,-99.99,,2013-10-16 16:32:00,
2013-10-16 08:37:00,42.4,42.3,0.00,ENE,77,4.3,-999.0,99,0.00,,,-99.99,,2013-10-16 16:37:00,
2013-10-16 08:43:00,42.3,42.2,0.00,SW,231,3.6,-999.0,99,0.00,,,-99.99,,2013-10-16 16:43:00,
2013-10-16 08:48:00,42.3,42.2,0.00,WNW,292,4.6,-999.0,99,0.00,,,-99.99,,2013-10-16 16:48:00,
2013-10-16 08:53:00,42.2,42.1,0.00,WNW,291,2.9,-999.0,99,0.00,,,-99.99,,2013-10-16 16:53:00,
2013-10-16 08:58:00,42.2,42.1,0.00,WNW,303,2.4,-999.0,99,0.00,,,-99.99,,2013-10-16 16:58:00,
2013-10-16 09:03:00,42.3,42.3,0.00,SW,233,9.1,-999.0,99,0.00,,,-99.99,,2013-10-16 17:03:00,
2013-10-16 09:09:00,42.2,42.1,0.00,NE,54,2.7,-999.0,99,0.00,,,-99.99,,2013-10-16 17:09:00,
2013-10-16 09:16:00,42.5,42.4,0.00,WSW,241,24.3,-999.0,99,0.00,,,-99.99,,2013-10-16 17:16:00,
2013-10-16 09:21:00,42.5,42.4,0.00,ENE,78,5.5,-999.0,99,0.00,,,-99.99,,2013-10-16 17:21:00,
2013-10-16 09:27:00,42.3,42.2,0.00,North,0,3.4,-999.0,99,0.00,,,-99.99,,2013-10-16 17:27:00,
2013-10-16 09:38:00,42.3,42.3,0.00,South,185,5.8,-999.0,99,0.00,,,-99.99,,2013-10-16 17:38:00,
2013-10-16 09:44:00,42.6,42.5,0.00,NW,313,6.2,-999.0,99,0.00,,,-99.99,,2013-10-16 17:44:00,
2013-10-16 09:50:00,42.6,42.5,0.00,NNE,33,4.9,-999.0,99,0.00,,,-99.99,,2013-10-16 17:50:00,
2013-10-16 09:56:00,42.7,42.6,0.00,NNW,343,4.0,-999.0,99,0.00,,,-99.99,,2013-10-16 17:56:00,
2013-10-16 10:01:00,42.8,42.7,0.00,NNW,345,2.8,-999.0,99,0.00,,,-99.99,,2013-10-16 18:01:00,
2013-10-16 10:07:00,42.7,42.6,0.00,NE,38,3.2,-999.0,99,0.00,,,-99.99,,2013-10-16 18:07:00,
2013-10-16 10:12:00,42.7,42.6,0.00,NNE,27,4.2,-999.0,99,0.00,,,-99.99,,2013-10-16 18:12:00,
2013-10-16 10:18:00,42.7,42.6,0.00,NNW,347,12.8,-999.0,99,0.00,,,-99.99,,2013-10-16 18:18:00,
2013-10-16 10:23:00,43.1,43.0,0.00,WNW,291,2.0,-999.0,99,0.00,,,-99.99,,2013-10-16 18:23:00,
2013-10-16 10:29:00,42.9,42.8,0.00,South,183,4.2,-999.0,99,0.00,,,-99.99,,2013-10-16 18:29:00,
2013-10-16 10:31:00,43.2,43.2,0.00,East,91,4.9,-999.0,99,0.00,,,-99.99,,2013-10-16 18:31:00,
2013-10-16 10:36:00,42.9,42.8,0.00,WNW,301,8.2,-999.0,99,0.00,,,-99.99,,2013-10-16 18:36:00,
2013-10-16 10:42:00,43.1,43.1,0.00,NNW,342,2.6,-999.0,99,0.00,,,-99.99,,2013-10-16 18:42:00,
2013-10-16 10:47:00,43.0,42.9,0.00,West,268,2.8,-999.0,99,0.00,,,-99.99,,2013-10-16 18:47:00,
2013-10-16 10:53:00,42.9,42.8,0.00,South,172,7.6,-999.0,99,0.00,,,-99.99,,2013-10-16 18:53:00,
2013-10-16 10:59:00,43.1,43.0,0.00,NNE,17,3.3,-999.0,99,0.00,,,-99.99,,2013-10-16 18:59:00,
2013-10-16 11:07:00,43.1,43.0,0.00,West,272,7.2,-999.0,99,0.00,,,-99.99,,2013-10-16 19:07:00,
2013-10-16 11:12:00,43.2,43.1,0.00,East,94,6.7,-999.0,99,0.00,,,-99.99,,2013-10-16 19:12:00,
2013-10-16 11:17:00,43.3,43.2,0.00,South,182,3.1,-999.0,99,0.00,,,-99.99,,2013-10-16 19:17:00,
2013-10-16 11:22:00,43.2,43.1,0.00,West,260,1.4,-999.0,99,0.00,,,-99.99,,2013-10-16 19:22:00,
2013-10-16 11:27:00,43.3,43.2,0.00,ESE,103,6.9,-999.0,99,0.00,,,-99.99,,2013-10-16 19:27:00,
2013-10-16 11:33:00,43.2,43.2,0.00,West,267,8.5,-999.0,99,0.00,,,-99.99,,2013-10-16 19:33:00,
2013-10-16 11:39:00,43.5,43.5,0.00,East,86,2.5,-999.0,99,0.00,,,-99.99,,2013-10-16 19:39:00,
2013-10-16 11:44:00,43.5,43.4,0.00,West,280,6.9,-999.0,99,0.00,,,-99.99,,2013-10-16 19:44:00,
2013-10-16 11:49:00,43.5,43.4,0.00,NNE,13,8.3,-999.0,99,0.00,,,-99.99,,2013-10-16 19:49:00,
2013-10-16 11:55:00,43.7,43.6,0.00,WNW,293,4.1,-999.0,99,0.00,,,-99.99,,2013-10-16 19:55:00,
2013-10-16 12:00:00,43.5,43.5,0.00,SW,219,2.8,-999.0,99,0.00,,,-99.99,,2013-10-16 20:00:00,
2013-10-16 12:06:00,43.7,43.6,0.00,SSW,213,5.3,-999.0,99,0.00,,,-99.99,,2013-10-16 20:06:00,
2013-10-16 12:11:00,43.7,43.7,0.00,NNE,18,2.5,-999.0,99,0.00,,,-99.99,,2013-10-16 20:11:00,
2013-10-16 12:16:00,43.5,43.5,0.00,West,261,7.7,-999.0,99,0.00,,,-99.99,,2013-10-16 20:16:00,
2013-10-16 12:21:00,43.5,43.5,0.00,WNW,299,0.9,-999.0,99,0.00,,,-99.99,,2013-10-16 20:21:00,
2013-10-16 12:26:00,43.7,43.6,0.00,ENE,70,6.5,-999.0,99,0.00,,,-99.99,,2013-10-16 20:26:00,
2013-10-16 12:32:00,43.5,43.5,0.00,North,0,1.7,-999.0,99,0.00,,,-99.99,,2013-10-16 20:32:00,
2013-10-16 12:38:00,43.7,43.6,0.00,North,349,4.3,-999.0,99,0.00,,,-99.99,,2013-10-16 20:38:00,
2013-10-16 12:44:00,43.5,43.4,0.00,SW,222,1.6,-999.0,99,0.00,,,-99.99,,2013-10-16 20:44:00,
2013-10-16 12:49:00,43.7,43.6,0.00,East,92,3.2,-999.0,99,0.00,,,-99.99,,2013-10-16 20:49:00,
2013-10-16 12:55:00,43.8,43.8,0.00,NW,323,6.1,-999.0,99,0.00,,,-99.99,,2013-10-16 20:55:00,
2013-10-16 13:00:00,43.5,43.5,0.00,NW,310,4.2,-999.0,99,0.00,,,-99.99,,2013-10-16 21:00:00,
2013-10-16 13:05:00,43.7,43.7,0.00,West,279,2.9,-999.0,99,0.00,,,-99.99,,2013-10-16 21:05:00,
2013-10-16 13:10:00,43.8,43.7,0.00,WNW,298,5.4,-999.0,99,0.00,,,-99.99,,2013-10-16 21:10:00,
2013-10-16 13:18:00,43.5,43.5,0.00,NNE,28,4.0,-999.0,99,0.00,,,-99.99,,2013-10-16 21:18:00,
2013-10-16 13:24:00,43.5,43.4,0.00,NNE,26,2.1,-999.0,99,0.00,,,-99.99,,2013-10-16 21:24:00,
2013-10-16 13:29:00,43.6,43.5,0.00,NE,38,2.1,-999.0,99,0.00,,,-99.99,,2013-10-16 21:29:00,
2013-10-16 13:36:00,43.6,43.5,0.00,East,97,4.9,-999.0,99,0.00,,,-99.99,,2013-10-16 21:36:00,
2013-10-16 13:43:00,43.4,43.3,0.00,North,8,5.6,-999.0,99,0.00,,,-99.99,,2013-10-16 21:43:00,
2013-10-16 13:49:00,43.6,43.5,0.00,NE,38,6.2,-999.0,99,0.00,,,-99.99,,2013-10-16 21:49:00,
2013-10-16 13:55:00,43.4,43.4,0.00,NW,309,4.9,-999.0,99,0.00,,,-99.99,,2013-10-16 21:55:00,
2013-10-16 14:01:00,43.5,43.4,0.00,North,352,3.2,-999.0,99,0.00,,,-99.99,,2013-10-16 22:01:00,
2013-10-16 14:07:00,43.7,43.6,0.00,NNE,31,1.5,-999.0,99,0.00,,,-99.99,,2013-10-16 22:07:00,
2013-10-16 14:12:00,43.5,43.5,0.00,West,280,4.6,-999.0,99,0.00,,,-99.99,,2013-10-16 22:12:00,
2013-10-16 14:18:00,43.5,43.5,0.00,West,274,2.6,-999.0,99,0.00,,,-99.99,,2013-10-16 22:18:00,
2013-10-16 14:24:00,43.6,43.5,0.00,WNW,290,9.6,-999.0,99,0.00,,,-99.99,,2013-10-16 22:24:00,
2013-10-16 14:30:00,43.6,43.6,0.00,West,266,1.8,-999.0,99,0.00,,,-99.99,,2013-10-16 22:30:00,
2013-10-16 14:35:00,43.5,43.5,0.00,NW,323,4.6,-999.0,99,0.00,,,-99.99,,2013-10-16 22:35:00,
2013-10-16 14:40:00,43.7,43.6,0.00,West,280,7.8,-999.0,99,0.00,,,-99.99,,2013-10-16 22:40:00,
2013-10-16 14:46:00,43.6,43.5,0.00,ESE,113,3.1,-999.0,99,0.00,,,-99.99,,2013-10-16 22:46:00,
2013-10-16 14:51:00,43.5,43.5,0.00,NNE,13,5.4,-999.0,99,0.00,,,-99.99,,2013-10-16 22:51:00,
2013-10-16 14:57:00,43.7,43.7,0.00,West,276,8.6,-999.0,99,0.00,,,-99.99,,2013-10-16 22:57:00,
2013-10-16 15:03:00,43.8,43.7,0.00,West,280,4.2,-999.0,99,0.00,,,-99.99,,2013-10-16 23:03:00,
2013-10-16 15:09:00,43.9,43.8,0.00,SSW,206,6.8,-999.0,99,0.00,,,-99.99,,2013-10-16 23:09:00,
2013-10-16 15:14:00,43.8,43.8,0.00,South,185,5.4,-999.0,99,0.00,,,-99.99,,2013-10-16 23:14:00,
2013-10-16 15:19:00,44.0,44.0,0.00,WNW,283,6.3,-999.0,99,0.00,,,-99.99,,2013-10-16 23:19:00,
2013-10-16 15:25:00,43.9,43.8,0.00,West,270,6.9,-999.0,99,0.00,,,-99.99,,2013-10-16 23:25:00,
2013-10-16 15:30:00,44.0,43.9,0.00,North,11,3.7,-999.0,99,0.00,,,-99.99,,2013-10-16 23:30:00,
2013-10-16 15:36:00,44.2,44.1,0.00,NW,315,7.6,-999.0,99,0.00,,,-99.99,,2013-10-16 23:36:00,
2013-10-16 15:41:00,44.0,44.0,0.00,West,269,9.9,-999.0,99,0.00,,,-99.99,,2013-10-16 23:41:00,
2013-10-16 15:47:00,44.0,43.9,0.00,WNW,303,2.3,-999.0,99,0.00,,,-99.99,,2013-10-16 23:47:00,
2013-10-16 15:52:00,43.9,43.8,0.00,ENE,61,3.3,-999.0,99,0.00,,,-99.99,,2013-10-16 23:52:00,
2013-10-16 15:58:00,44.0,43.9,0.00,East,100,3.0,-999.0,99,0.00,,,-99.99,,2013-10-16 23:58:00,
2013-10-16 16:03:00,44.0,43.9,0.00,North,349,7.8,-999.0,99,0.00,,,-99.99,,2013-10-17 00:03:00,
2013-10-16 16:08:00,44.0,44.0,0.00,NW,309,5.1,-999.0,99,0.00,,,-99.99,,2013-10-17 00:08:00,
2013-10-16 16:14:00,44.1,44.0,0.00,North,351,6.2,-999.0,99,0.00,,,-99.99,,2013-10-17 00:14:00,
2013-10-16 16:19:00,44.0,44.0,0.00,NNE,22,2.3,-999.0,99,0.00,,,-99.99,,2013-10-17 00:19:00,
2013-10-16 16:24:00,44.0,43.9,0.00,West,264,1.3,-999.0,99,0.00,,,-99.99,,2013-10-17 00:24:00,
2013-10-16 16:30:00,43.9,43.8,0.00,North,8,5.8,-999.0,99,0.00,,,-99.99,,2013-10-17 00:30:00,
2013-10-16 16:35:00,44.1,44.0,0.00,WNW,295,1.6,-999.0,99,0.00,,,-99.99,,2013-10-17 00:35:00,
2013-10-16 16:40:00,44.0,43.9,0.00,WNW,289,3.0,-999.0,99,0.00,,,-99.99,,2013-10-17 00:40:00,
2013-10-16 16:45:00,44.2,44.1,0.00,NNE,32,2.8,-999.0,99,0.00,,,-99.99,,2013-10-17 00:45:00,
2013-10-16 16:50:00,44.0,43.9,0.00,SW,216,11.1,-999.0,99,0.00,,,-99.99,,2013-10-17 00:50:00,
2013-10-16 16:56:00,43.9,43.9,0.00,NNW,332,4.2,-999.0,99,0.00,,,-99.99,,2013-10-17 00:56:00,
2013-10-16 17:02:00,44.1,44.0,0.00,ENE,70,3.5,-999.0,99,0.00,,,-99.99,,2013-10-17 01:02:00,
2013-10-16 17:08:00,44.2,44.1,0.00,South,181,2.5,-999.0,99,0.00,,,-99.99,,2013-10-17 01:08:00,
2013-10-16 17:13:00,44.0,43.9,0.00,NNW,335,7.7,-999.0,99,0.00,,,-99.99,,2013-10-17 01:13:00,
2013-10-16 17:18:00,44.2,44.2,0.00,ENE,75,1.5,-999.0,99,0.00,,,-99.99,,2013-10-17 01:18:00,
2013-10-16 17:23:00,44.1,44.0,0.00,NW,324,6.2,-999.0,99,0.00,,,-99.99,,2013-10-17 01:23:00,
2013-10-16 17:29:00,44.2,44.1,0.00,WSW,257,11.4,-999.0,99,0.00,,,-99.99,,2013-10-17 01:29:00,
2013-10-16 17:34:00,44.2,44.2,0.00,NE,36,4.4,-999.0,99,0.00,,,-99.99,,2013-10-17 01:34:00,
2013-10-16 17:39:00,44.4,44.3,0.00,NE,54,3.1,-999.0,99,0.00,,,-99.99,,2013-10-17 01:39:00,
2013-10-16 17:44:00,44.3,44.2,0.00,NNW,336,1.8,-999.0,99,0.00,,,-99.99,,2013-10-17 01:44:00,
2013-10-16 17:50:00,44.3,44.2,0.00,NW,304,4.7,-999.0,99,0.00,,,-99.99,,2013-10-17 01:50:00,
2013-10-16 17:55:00,44.3,44.3,0.00,ENE,61,3.1,-999.0,99,0.00,,,-99.99,,2013-10-17 01:55:00,
2013-10-16 18:00:00,44.5,44.4,0.00,North,5,5.3,-999.0,99,0.00,,,-99.99,,2013-10-17 02:00:00,
2013-10-16 18:06:00,44.6,44.5,0.00,WNW,283,15.3,-999.0,99,0.00,,,-99.99,,2013-10-17 02:06:00,
2013-10-16 18:13:00,44.3,44.2,0.00,NW,304,5.5,-999.0,99,0.00,,,-99.99,,2013-10-17 02:13:00,
2013-10-16 18:18:00,44.6,44.6,0.00,WNW,296,7.1,-999.0,99,0.00,,,-99.99,,2013-10-17 02:18:00,
2013-10-16 18:24:00,44.5,44.4,0.00,NW,306,15.1,-999.0,99,0.00,,,-99.99,,2013-10-17 02:24:00,
2013-10-16 18:29:00,44.6,44.5,0.00,East,86,2.8,-999.0,99,0.00,,,-99.99,,2013-10-17 02:29:00,
2013-10-16 18:35:00,44.4,44.3,0.00,NW,325,6.8,-999.0,99,0.00,,,-99.99,,2013-10-17 02:35:00,
2013-10-16 18:41:00,44.3,44.2,0.00,West,274,11.3,-999.0,99,0.00,,,-99.99,,2013-10-17 02:41:00,
2013-10-16 18:46:00,44.4,44.3,0.00,NW,305,4.3,-999.0,99,0.00,,,-99.99,,2013-10-17 02:46:00,
2013-10-16 18:52:00,44.5,44.4,0.00,SE,125,3.8,-999.0,99,0.00,,,-99.99,,2013-10-17 02:52:00,
2013-10-16 18:58:00,44.4,44.3,0.00,WNW,292,5.7,-999.0,99,0.00,,,-99.99,,2013-10-17 02:58:00,
2013-10-16 19:03:00,44.4,44.3,0.00,NW,313,0.8,-999.0,99,0.00,,,-99.99,,2013-10-17 03:03:00,
2013-10-16 19:08:00,44.4,44.3,0.00,ENE,62,6.7,-999.0,99,0.00,,,-99.99,,2013-10-17 03:08:00,
2013-10-16 19:14:00,44.4,44.3,0.00,NW,308,8.7,-999.0,99,0.00,,,-99.99,,2013-10-17 03:14:00,
2013-10-16 19:20:00,44.5,44.4,0.00,SSE,149,4.2,-999.0,99,0.00,,,-99.99,,2013-10-17 03:20:00,
2013-10-16 19:26:00,44.4,44.3,0.00,North,0,3.5,-999.0,99,0.00,,,-99.99,,2013-10-17 03:26:00,
2013-10-16 19:33:00,44.5,44.5,0.00,NNE,22,1.9,-999.0,99,0.00,,,-99.99,,2013-10-17 03:33:00,
2013-10-16 19:39:00,44.3,44.3,0.00,East,85,3.6,-999.0,99,0.00,,,-99.99,,2013-10-17 03:39:00,
2013-10-16 19:46:00,44.2,44.2,0.00,WNW,297,4.4,-999.0,99,0.00,,,-99.99,,2013-10-17 03:46:00,
2013-10-16 19:51:00,44.4,44.3,0.00,SSE,153,5.5,-999.0,99,0.00,,,-99.99,,2013-10-17 03:51:00,
2013-10-16 19:57:00,44.2,44.1,0.00,SSE,167,4.5,-999.0,99,0.00,,,-99.99,,2013-10-17 03:57:00,
2013-10-16 20:01:00,44.5,44.4,0.00,West,276,2.7,-999.0,99,0.00,,,-99.99,,2013-10-17 04:01:00,
2013-10-16 20:03:00,44.3,44.3,0.00,North,4,10.9,-999.0,99,0.00,,,-99.99,,2013-10-17 04:03:00,
2013-10-16 20:05:00,44.2,44.1,0.00,SSW,205,1.5,-999.0,99,0.00,,,-99.99,,2013-10-17 04:05:00,
2013-10-16 20:06:00,44.3,44.3,0.00,ENE,76,7.6,-999.0,99,0.00,,,-99.99,,2013-10-17 04:06:00,
2013-10-16 20:08:00,44.3,44.3,0.00,NNW,344,2.5,-999.0,99,0.00,,,-99.99,,2013-10-17 04:08:00,
2013-10-16 20:12:00,44.4,44.3,0.00,North,9,4.8,-999.0,99,0.00,,,-99.99,,2013-10-17 04:12:00,
2013-10-16 20:17:00,44.3,44.2,0.00,SE,133,4.0,-999.0,99,0.00,,,-99.99,,2013-10-17 04:17:00,
2013-10-16 20:22:00,44.2,44.1,0.00,WSW,256,4.5,-999.0,99,0.00,,,-99.99,,2013-10-17 04:22:00,
2013-10-16 20:27:00,44.4,44.3,0.00,WSW,243,6.1,-999.0,99,0.00,,,-99.99,,2013-10-17 04:27:00,
2013-10-16 20:32:00,44.2,44.2,0.00,SSE,160,3.5,-999.0,99,0.00,,,-99.99,,2013-10-17 04:32:00,
2013-10-16 20:38:00,44.5,44.4,0.00,East,97,2.6,-999.0,99,0.00,,,-99.99,,2013-10-17 04:38:00,
2013-10-16 20:44:00,44.2,44.2,0.00,NW,323,7.6,-999.0,99,0.00,,,-99.99,,2013-10-17 04:44:00,
2013-10-16 20:50:00,44.2,44.1,0.00,ESE,103,4.5,-999.0,99,0.00,,,-99.99,,2013-10-17 04:50:00,
2013-10-16 20:55:00,44.4,44.3,0.00,South,179,13.4,-999.0,99,0.00,,,-99.99,,2013-10-17 04:55:00,
2013-10-16 21:01:00,44.2,44.2,0.00,SSE,152,4.1,-999.0,99,0.00,,,-99.99,,2013-10-17 05:01:00,
2013-10-16 21:06:00,44.2,44.1,0.00,East,84,2.6,-999.0,99,0.00,,,-99.99,,2013-10-17 05:06:00,
2013-10-16 21:12:00,44.2,44.1,0.00,SE,128,3.0,-999.0,99,0.00,,,-99.99,,2013-10-17 05:12:00,
2013-10-16 21:18:00,44.2,44.1,0.00,ENE,72,2.8,-999.0,99,0.00,,,-99.99,,2013-10-17 05:18:00,
2013-10-16 21:24:00,44.3,44.3,0.00,ENE,77,4.7,-999.0,99,0.00,,,-99.99,,2013-10-17 05:24:00,
2013-10-16 21:30:00,44.2,44.2,0.00,ESE,116,0.9,-999.0,99,0.00,,,-99.99,,2013-10-17 05:30:00,
2013-10-16 21:36:00,44.2,44.1,0.00,ENE,58,6.3,-999.0,99,0.00,,,-99.99,,2013-10-17 05:36:00,
2013-10-16 21:42:00,44.2,44.2,0.00,NW,324,3.5,-999.0,99,0.00,,,-99.99,,2013-10-17 05:42:00,
2013-10-16 21:48:00,44.0,44.0,0.00,East,87,1.0,-999.0,99,0.00,,,-99.99,,2013-10-17 05:48:00,
2013-10-16 21:54:00,44.0,43.9,0.00,WSW,249,3.4,-999.0,99,0.00,,,-99.99,,2013-10-17 05:54:00,
2013-10-16 21:59:00,44.2,44.2,0.00,NNE,12,3.1,-999.0,99,0.00,,,-99.99,,2013-10-17 05:59:00,
2013-10-16 22:05:00,44.2,44.2,0.00,NNW,335,4.6,-999.0,99,0.00,,,-99.99,,2013-10-17 06:05:00,
2013-10-16 22:12:00,44.2,44.1,0.00,NNW,342,1.6,-999.0,99,0.00,,,-99.99,,2013-10-17 06:12:00,
2013-10-16 22:18:00,44.2,44.1,0.00,NE,50,4.7,-999.0,99,0.00,,,-99.99,,2013-10-17 06:18:00,
2013-10-16 22:23:00,44.0,43.9,0.00,North,7,6.5,-999.0,99,0.00,,,-99.99,,2013-10-17 06:23:00,
2013-10-16 22:29:00,44.0,44.0,0.00,East,94,5.1,-999.0,99,0.00,,,-99.99,,2013-10-17 06:29:00,
2013-10-16 22:34:00,44.0,44.0,0.00,NE,48,6.1,-999.0,99,0.00,,,-99.99,,2013-10-17 06:34:00,
2013-10-16 22:39:00,44.0,44.0,0.00,NNW,348,1.7,-999.0,99,0.00,,,-99.99,,2013-10-17 06:39:00,
2013-10-16 22:44:00,44.0,43.9,0.00,SSE,153,4.5,-999.0,99,0.00,,,-99.99,,2013-10-17 06:44:00,
2013-10-16 22:50:00,44.1,44.0,0.00,SW,232,5.7,-999.0,99,0.00,,,-99.99,,2013-10-17 06:50:00,
2013-10-16 22:55:00,44.0,44.0,0.00,NNE,23,11.6,-999.0,99,0.00,,,-99.99,,2013-10-17 06:55:00,
2013-10-16 23:00:00,44.2,44.2,0.00,SW,219,5.5,-999.0,99,0.00,,,-99.99,,2013-10-17 07:00:00,
2013-10-16 23:06:00,44.2,44.1,0.00,South,180,3.2,-999.0,99,0.00,,,-99.99,,2013-10-17 07:06:00,
2013-10-16 23:12:00,44.1,44.0,0.00,WSW,252,3.1,-999.0,99,0.00,,,-99.99,,2013-10-17 07:12:00,
2013-10-16 23:18:00,44.2,44.1,0.00,NW,308,3.1,-999.0,99,0.00,,,-99.99,,2013-10-17 07:18:00,
2013-10-16 23:24:00,44.2,44.1,0.00,SSW,195,5.1,-999.0,99,0.00,,,-99.99,,2013-10-17 07:24:00,
2013-10-16 23:29:00,44.3,44.3,0.00,SSE,159,2.8,-999.0,99,0.00,,,-99.99,,2013-10-17 07:29:00,
2013-10-16 23:35:00,44.3,44.2,0.00,ENE,62,5.4,-999.0,99,0.00,,,-99.99,,2013-10-17 07:35:00,
2013-10-16 23:41:00,44.3,44.3,0.00,ENE,61,1.4,-999.0,99,0.00,,,-99.99,,2013-10-17 07:41:00,
2013-10-16 23:47:00,44.4,44.3,0.00,NW,304,4.2,-999.0,99,0.00,,,-99.99,,2013-10-17 07:47:00,
2013-10-16 23:54:00,44.5,44.4,0.00,East,86,7.2,-999.0,99,0.00,,,-99.99,,2013-10-17 07:54:00,